sensor_id;sensor_type;location;lat;lon;timestamp;temperature;humidity
29341;DHT22;16337;59.536;13.468;2023-12-28T00:00:05;-9.00;99.90
29341;DHT22;16337;59.536;13.468;2023-12-28T00:02:32;-9.00;99.90
29341;DHT22;16337;59.536;13.468;2023-12-28T00:04:58;-9.00;99.90
29341;DHT22;16337;59.536;13.468;2023-12-28T00:07:24;-8.90;99.90
29341;DHT22;16337;59.536;13.468;2023-12-28T00:09:49;-8.90;99.90
29341;DHT22;16337;59.536;13.468;2023-12-28T00:12:15;-8.80;99.90
29341;DHT22;16337;59.536;13.468;2023-12-28T00:14:40;-8.80;99.90
29341;DHT22;16337;59.536;13.468;2023-12-28T00:17:06;-8.80;99.90
29341;DHT22;16337;59.536;13.468;2023-12-28T00:19:32;-8.70;99.90
29341;DHT22;16337;59.536;13.468;2023-12-28T00:21:57;-8.70;99.90
29341;DHT22;16337;59.536;13.468;2023-12-28T00:24:23;-8.50;99.90
29341;DHT22;16337;59.536;13.468;2023-12-28T00:26:49;-8.50;99.90
29341;DHT22;16337;59.536;13.468;2023-12-28T00:29:14;-8.40;99.90
29341;DHT22;16337;59.536;13.468;2023-12-28T00:31:40;-8.40;99.90
29341;DHT22;16337;59.536;13.468;2023-12-28T00:34:06;-8.40;99.90
29341;DHT22;16337;59.536;13.468;2023-12-28T00:36:31;-8.40;99.90
29341;DHT22;16337;59.536;13.468;2023-12-28T00:38:57;-8.40;99.90
29341;DHT22;16337;59.536;13.468;2023-12-28T00:41:23;-8.40;99.90
29341;DHT22;16337;59.536;13.468;2023-12-28T00:43:48;-8.30;99.90
29341;DHT22;16337;59.536;13.468;2023-12-28T00:46:14;-8.30;99.90
29341;DHT22;16337;59.536;13.468;2023-12-28T00:48:40;-8.20;99.90
29341;DHT22;16337;59.536;13.468;2023-12-28T00:51:05;-8.20;99.90
29341;DHT22;16337;59.536;13.468;2023-12-28T00:53:31;-8.20;99.90
29341;DHT22;16337;59.536;13.468;2023-12-28T00:55:56;-8.20;99.90
29341;DHT22;16337;59.536;13.468;2023-12-28T00:58:22;-8.10;99.90
29341;DHT22;16337;59.536;13.468;2023-12-28T01:00:48;-8.10;99.90
29341;DHT22;16337;59.536;13.468;2023-12-28T01:03:13;-8.10;99.90
29341;DHT22;16337;59.536;13.468;2023-12-28T01:05:39;-8.10;99.90
29341;DHT22;16337;59.536;13.468;2023-12-28T01:08:05;-8.10;99.90
29341;DHT22;16337;59.536;13.468;2023-12-28T01:10:31;-8.10;99.90
29341;DHT22;16337;59.536;13.468;2023-12-28T01:12:56;-8.10;99.90
29341;DHT22;16337;59.536;13.468;2023-12-28T01:15:22;-8.10;99.90
29341;DHT22;16337;59.536;13.468;2023-12-28T01:17:48;-8.10;99.90
29341;DHT22;16337;59.536;13.468;2023-12-28T01:20:13;-8.10;99.90
29341;DHT22;16337;59.536;13.468;2023-12-28T01:22:39;-8.10;99.90
29341;DHT22;16337;59.536;13.468;2023-12-28T01:25:05;-8.00;99.90
29341;DHT22;16337;59.536;13.468;2023-12-28T01:27:30;-8.00;99.90
29341;DHT22;16337;59.536;13.468;2023-12-28T01:29:56;-8.00;99.90
29341;DHT22;16337;59.536;13.468;2023-12-28T01:32:22;-8.00;99.90
29341;DHT22;16337;59.536;13.468;2023-12-28T01:34:47;-8.00;99.90
29341;DHT22;16337;59.536;13.468;2023-12-28T01:37:13;-8.00;99.90
29341;DHT22;16337;59.536;13.468;2023-12-28T01:39:39;-7.90;99.90
29341;DHT22;16337;59.536;13.468;2023-12-28T01:42:05;-8.00;99.90
29341;DHT22;16337;59.536;13.468;2023-12-28T01:44:31;-7.90;99.90
29341;DHT22;16337;59.536;13.468;2023-12-28T01:46:58;-8.00;99.90
29341;DHT22;16337;59.536;13.468;2023-12-28T01:49:24;-7.90;99.90
29341;DHT22;16337;59.536;13.468;2023-12-28T01:51:50;-8.00;99.90
29341;DHT22;16337;59.536;13.468;2023-12-28T01:54:16;-8.00;99.90
29341;DHT22;16337;59.536;13.468;2023-12-28T01:56:43;-8.00;99.90
29341;DHT22;16337;59.536;13.468;2023-12-28T01:59:09;-8.00;99.90
29341;DHT22;16337;59.536;13.468;2023-12-28T02:01:36;-8.00;99.90
29341;DHT22;16337;59.536;13.468;2023-12-28T02:04:01;-8.00;99.90
29341;DHT22;16337;59.536;13.468;2023-12-28T02:06:28;-8.00;99.90
29341;DHT22;16337;59.536;13.468;2023-12-28T02:08:53;-7.90;99.90
29341;DHT22;16337;59.536;13.468;2023-12-28T02:11:20;-7.90;99.90
29341;DHT22;16337;59.536;13.468;2023-12-28T02:13:46;-7.90;99.90
29341;DHT22;16337;59.536;13.468;2023-12-28T02:16:39;-7.90;99.90
29341;DHT22;16337;59.536;13.468;2023-12-28T02:22:08;-7.90;99.90
29341;DHT22;16337;59.536;13.468;2023-12-28T02:27:28;-7.90;99.90
29341;DHT22;16337;59.536;13.468;2023-12-28T02:29:55;-7.90;99.90
29341;DHT22;16337;59.536;13.468;2023-12-28T02:32:28;-7.90;99.90
29341;DHT22;16337;59.536;13.468;2023-12-28T02:35:23;-7.90;99.90
29341;DHT22;16337;59.536;13.468;2023-12-28T02:37:52;-7.80;99.90
29341;DHT22;16337;59.536;13.468;2023-12-28T02:40:19;-7.80;99.90
29341;DHT22;16337;59.536;13.468;2023-12-28T02:42:46;-7.80;99.90
29341;DHT22;16337;59.536;13.468;2023-12-28T02:45:12;-7.80;99.90
29341;DHT22;16337;59.536;13.468;2023-12-28T02:47:38;-7.80;99.90
29341;DHT22;16337;59.536;13.468;2023-12-28T02:50:04;-7.80;99.90
29341;DHT22;16337;59.536;13.468;2023-12-28T02:52:29;-7.90;99.90
29341;DHT22;16337;59.536;13.468;2023-12-28T02:54:55;-7.90;99.90
29341;DHT22;16337;59.536;13.468;2023-12-28T02:57:21;-7.90;99.90
29341;DHT22;16337;59.536;13.468;2023-12-28T02:59:47;-7.80;99.90
29341;DHT22;16337;59.536;13.468;2023-12-28T03:02:12;-7.80;99.90
29341;DHT22;16337;59.536;13.468;2023-12-28T03:04:38;-7.80;99.90
29341;DHT22;16337;59.536;13.468;2023-12-28T03:07:08;-7.80;99.90
29341;DHT22;16337;59.536;13.468;2023-12-28T03:09:34;-7.80;99.90
29341;DHT22;16337;59.536;13.468;2023-12-28T03:12:00;-7.70;99.90
29341;DHT22;16337;59.536;13.468;2023-12-28T03:14:26;-7.70;99.90
29341;DHT22;16337;59.536;13.468;2023-12-28T03:16:52;-7.70;99.90
29341;DHT22;16337;59.536;13.468;2023-12-28T03:19:17;-7.60;99.90
29341;DHT22;16337;59.536;13.468;2023-12-28T03:21:43;-7.60;99.90
29341;DHT22;16337;59.536;13.468;2023-12-28T03:24:09;-7.50;99.90
29341;DHT22;16337;59.536;13.468;2023-12-28T03:26:40;-7.50;99.90
29341;DHT22;16337;59.536;13.468;2023-12-28T03:29:07;-7.50;99.90
29341;DHT22;16337;59.536;13.468;2023-12-28T03:31:33;-7.40;99.90
29341;DHT22;16337;59.536;13.468;2023-12-28T03:33:59;-7.40;99.90
29341;DHT22;16337;59.536;13.468;2023-12-28T03:36:25;-7.30;99.90
29341;DHT22;16337;59.536;13.468;2023-12-28T03:38:51;-7.30;99.90
29341;DHT22;16337;59.536;13.468;2023-12-28T03:41:20;-7.20;99.90
29341;DHT22;16337;59.536;13.468;2023-12-28T03:43:46;-7.20;99.90
29341;DHT22;16337;59.536;13.468;2023-12-28T03:46:12;-7.10;99.90
29341;DHT22;16337;59.536;13.468;2023-12-28T03:48:38;-7.00;99.90
29341;DHT22;16337;59.536;13.468;2023-12-28T03:51:04;-7.00;99.90
29341;DHT22;16337;59.536;13.468;2023-12-28T03:53:30;-6.90;99.90
29341;DHT22;16337;59.536;13.468;2023-12-28T03:55:59;-6.80;99.90
29341;DHT22;16337;59.536;13.468;2023-12-28T03:58:25;-6.70;99.90
29341;DHT22;16337;59.536;13.468;2023-12-28T04:00:50;-6.60;99.90
29341;DHT22;16337;59.536;13.468;2023-12-28T04:03:16;-6.50;99.90
29341;DHT22;16337;59.536;13.468;2023-12-28T04:05:43;-6.40;99.90
29341;DHT22;16337;59.536;13.468;2023-12-28T04:08:09;-6.40;99.90
29341;DHT22;16337;59.536;13.468;2023-12-28T04:10:35;-6.30;99.90
29341;DHT22;16337;59.536;13.468;2023-12-28T04:13:03;-6.30;99.90
29341;DHT22;16337;59.536;13.468;2023-12-28T04:15:29;-6.30;99.90
29341;DHT22;16337;59.536;13.468;2023-12-28T04:17:55;-6.30;99.90
29341;DHT22;16337;59.536;13.468;2023-12-28T04:20:21;-6.20;99.90
29341;DHT22;16337;59.536;13.468;2023-12-28T04:22:46;-6.20;99.90
29341;DHT22;16337;59.536;13.468;2023-12-28T04:25:12;-6.20;99.90
29341;DHT22;16337;59.536;13.468;2023-12-28T04:27:39;-6.20;99.90
29341;DHT22;16337;59.536;13.468;2023-12-28T04:30:05;-6.10;99.90
29341;DHT22;16337;59.536;13.468;2023-12-28T04:32:34;-6.00;99.90
29341;DHT22;16337;59.536;13.468;2023-12-28T04:35:00;-6.00;99.90
29341;DHT22;16337;59.536;13.468;2023-12-28T04:37:25;-5.90;99.90
29341;DHT22;16337;59.536;13.468;2023-12-28T04:39:52;-5.90;99.90
29341;DHT22;16337;59.536;13.468;2023-12-28T04:42:19;-5.90;99.90
29341;DHT22;16337;59.536;13.468;2023-12-28T04:44:44;-5.80;99.90
29341;DHT22;16337;59.536;13.468;2023-12-28T04:47:10;-5.80;99.90
29341;DHT22;16337;59.536;13.468;2023-12-28T04:49:36;-5.70;99.90
29341;DHT22;16337;59.536;13.468;2023-12-28T04:52:01;-5.60;99.90
29341;DHT22;16337;59.536;13.468;2023-12-28T04:54:27;-5.50;99.90
29341;DHT22;16337;59.536;13.468;2023-12-28T04:56:53;-5.40;99.90
29341;DHT22;16337;59.536;13.468;2023-12-28T04:59:18;-5.30;99.90
29341;DHT22;16337;59.536;13.468;2023-12-28T05:01:44;-5.30;99.90
29341;DHT22;16337;59.536;13.468;2023-12-28T05:04:11;-5.20;99.90
29341;DHT22;16337;59.536;13.468;2023-12-28T05:06:36;-5.10;99.90
29341;DHT22;16337;59.536;13.468;2023-12-28T05:09:03;-5.00;99.90
29341;DHT22;16337;59.536;13.468;2023-12-28T05:11:28;-4.80;99.90
29341;DHT22;16337;59.536;13.468;2023-12-28T05:13:54;-4.70;99.90
29341;DHT22;16337;59.536;13.468;2023-12-28T05:16:20;-4.60;99.90
29341;DHT22;16337;59.536;13.468;2023-12-28T05:18:46;-4.50;99.90
29341;DHT22;16337;59.536;13.468;2023-12-28T05:21:12;-4.40;99.90
29341;DHT22;16337;59.536;13.468;2023-12-28T05:23:38;-4.40;99.90
29341;DHT22;16337;59.536;13.468;2023-12-28T05:26:04;-4.30;99.90
29341;DHT22;16337;59.536;13.468;2023-12-28T05:28:30;-4.30;99.90
29341;DHT22;16337;59.536;13.468;2023-12-28T05:30:56;-4.20;99.90
29341;DHT22;16337;59.536;13.468;2023-12-28T05:33:24;-4.20;99.90
29341;DHT22;16337;59.536;13.468;2023-12-28T05:35:50;-4.20;99.90
29341;DHT22;16337;59.536;13.468;2023-12-28T05:38:16;-4.10;99.90
29341;DHT22;16337;59.536;13.468;2023-12-28T05:40:41;-4.10;99.90
29341;DHT22;16337;59.536;13.468;2023-12-28T05:43:09;-4.00;99.90
29341;DHT22;16337;59.536;13.468;2023-12-28T05:45:34;-4.10;99.90
29341;DHT22;16337;59.536;13.468;2023-12-28T05:48:00;-4.00;99.90
29341;DHT22;16337;59.536;13.468;2023-12-28T05:50:26;-4.00;99.90
29341;DHT22;16337;59.536;13.468;2023-12-28T05:52:51;-4.00;99.90
29341;DHT22;16337;59.536;13.468;2023-12-28T05:55:17;-3.90;99.90
29341;DHT22;16337;59.536;13.468;2023-12-28T05:57:43;-3.90;99.90
29341;DHT22;16337;59.536;13.468;2023-12-28T06:00:09;-3.90;99.90
29341;DHT22;16337;59.536;13.468;2023-12-28T06:02:35;-3.90;99.90
29341;DHT22;16337;59.536;13.468;2023-12-28T06:05:01;-3.80;99.90
29341;DHT22;16337;59.536;13.468;2023-12-28T06:07:26;-3.80;99.90
29341;DHT22;16337;59.536;13.468;2023-12-28T06:09:52;-3.80;99.90
29341;DHT22;16337;59.536;13.468;2023-12-28T06:12:18;-3.80;99.90
29341;DHT22;16337;59.536;13.468;2023-12-28T06:14:43;-3.80;99.90
29341;DHT22;16337;59.536;13.468;2023-12-28T06:17:09;-3.80;99.90
29341;DHT22;16337;59.536;13.468;2023-12-28T06:19:35;-3.80;99.90
29341;DHT22;16337;59.536;13.468;2023-12-28T06:22:00;-3.80;99.90
29341;DHT22;16337;59.536;13.468;2023-12-28T06:24:26;-3.80;99.90
29341;DHT22;16337;59.536;13.468;2023-12-28T06:26:52;-3.80;99.90
29341;DHT22;16337;59.536;13.468;2023-12-28T06:29:17;-3.70;99.90
29341;DHT22;16337;59.536;13.468;2023-12-28T06:31:43;-3.70;99.90
29341;DHT22;16337;59.536;13.468;2023-12-28T06:34:09;-3.70;99.90
29341;DHT22;16337;59.536;13.468;2023-12-28T06:36:34;-3.70;99.90
29341;DHT22;16337;59.536;13.468;2023-12-28T06:39:00;-3.60;99.90
29341;DHT22;16337;59.536;13.468;2023-12-28T06:41:26;-3.60;99.90
29341;DHT22;16337;59.536;13.468;2023-12-28T06:43:52;-3.60;99.90
29341;DHT22;16337;59.536;13.468;2023-12-28T06:46:18;-3.60;99.90
29341;DHT22;16337;59.536;13.468;2023-12-28T06:48:44;-3.60;99.90
29341;DHT22;16337;59.536;13.468;2023-12-28T06:51:15;-3.60;99.90
29341;DHT22;16337;59.536;13.468;2023-12-28T06:53:41;-3.60;99.90
29341;DHT22;16337;59.536;13.468;2023-12-28T06:56:07;-3.50;99.90
29341;DHT22;16337;59.536;13.468;2023-12-28T06:58:33;-3.50;99.90
29341;DHT22;16337;59.536;13.468;2023-12-28T07:00:58;-3.40;99.90
29341;DHT22;16337;59.536;13.468;2023-12-28T07:03:24;-3.50;99.90
29341;DHT22;16337;59.536;13.468;2023-12-28T07:05:55;-3.40;99.90
29341;DHT22;16337;59.536;13.468;2023-12-28T07:08:21;-3.40;99.90
29341;DHT22;16337;59.536;13.468;2023-12-28T07:10:46;-3.40;99.90
29341;DHT22;16337;59.536;13.468;2023-12-28T07:13:12;-3.30;99.90
29341;DHT22;16337;59.536;13.468;2023-12-28T07:15:38;-3.30;99.90
29341;DHT22;16337;59.536;13.468;2023-12-28T07:18:04;-3.30;99.90
29341;DHT22;16337;59.536;13.468;2023-12-28T07:20:29;-3.20;99.90
29341;DHT22;16337;59.536;13.468;2023-12-28T07:22:55;-3.20;99.90
29341;DHT22;16337;59.536;13.468;2023-12-28T07:25:21;-3.20;99.90
29341;DHT22;16337;59.536;13.468;2023-12-28T07:27:46;-3.10;99.90
29341;DHT22;16337;59.536;13.468;2023-12-28T07:30:12;-3.10;99.90
29341;DHT22;16337;59.536;13.468;2023-12-28T07:32:38;-3.10;99.90
29341;DHT22;16337;59.536;13.468;2023-12-28T07:35:04;-3.10;99.90
29341;DHT22;16337;59.536;13.468;2023-12-28T07:37:30;-3.10;99.90
29341;DHT22;16337;59.536;13.468;2023-12-28T07:39:56;-3.10;99.90
29341;DHT22;16337;59.536;13.468;2023-12-28T07:42:23;-3.00;99.90
29341;DHT22;16337;59.536;13.468;2023-12-28T07:44:49;-3.00;99.90
29341;DHT22;16337;59.536;13.468;2023-12-28T07:47:14;-2.90;99.90
29341;DHT22;16337;59.536;13.468;2023-12-28T07:49:40;-2.90;99.90
29341;DHT22;16337;59.536;13.468;2023-12-28T07:52:06;-2.80;99.90
29341;DHT22;16337;59.536;13.468;2023-12-28T07:54:32;-2.90;99.90
29341;DHT22;16337;59.536;13.468;2023-12-28T07:56:57;-2.90;99.90
29341;DHT22;16337;59.536;13.468;2023-12-28T07:59:23;-2.80;99.90
29341;DHT22;16337;59.536;13.468;2023-12-28T08:01:49;-2.80;99.90
29341;DHT22;16337;59.536;13.468;2023-12-28T08:04:14;-2.80;99.90
29341;DHT22;16337;59.536;13.468;2023-12-28T08:06:40;-2.70;99.90
29341;DHT22;16337;59.536;13.468;2023-12-28T08:09:05;-2.70;99.90
29341;DHT22;16337;59.536;13.468;2023-12-28T08:11:32;-2.70;99.90
29341;DHT22;16337;59.536;13.468;2023-12-28T08:13:58;-2.70;99.90
29341;DHT22;16337;59.536;13.468;2023-12-28T08:16:23;-2.70;99.90
29341;DHT22;16337;59.536;13.468;2023-12-28T08:18:49;-2.60;99.90
29341;DHT22;16337;59.536;13.468;2023-12-28T08:21:15;-2.60;99.90
29341;DHT22;16337;59.536;13.468;2023-12-28T08:51:01;-2.40;99.90
29341;DHT22;16337;59.536;13.468;2023-12-28T08:53:27;-2.30;99.90
29341;DHT22;16337;59.536;13.468;2023-12-28T08:55:53;-2.30;99.90
29341;DHT22;16337;59.536;13.468;2023-12-28T08:58:19;-2.30;99.90
29341;DHT22;16337;59.536;13.468;2023-12-28T09:00:44;-2.30;99.90
29341;DHT22;16337;59.536;13.468;2023-12-28T09:03:11;-2.30;99.90
29341;DHT22;16337;59.536;13.468;2023-12-28T11:33:50;-0.50;99.90
29341;DHT22;16337;59.536;13.468;2023-12-28T11:36:39;-0.60;99.90
29341;DHT22;16337;59.536;13.468;2023-12-28T11:39:06;-0.60;99.90
29341;DHT22;16337;59.536;13.468;2023-12-28T11:41:42;-0.60;99.90
29341;DHT22;16337;59.536;13.468;2023-12-28T11:44:08;-0.60;99.90
29341;DHT22;16337;59.536;13.468;2023-12-28T11:46:35;-0.60;99.90
29341;DHT22;16337;59.536;13.468;2023-12-28T11:49:05;-0.50;99.90
29341;DHT22;16337;59.536;13.468;2023-12-28T11:51:35;-0.50;99.90
29341;DHT22;16337;59.536;13.468;2023-12-28T11:54:01;-0.50;99.90
29341;DHT22;16337;59.536;13.468;2023-12-28T11:56:32;-0.60;99.90
29341;DHT22;16337;59.536;13.468;2023-12-28T11:59:02;-0.50;99.90
29341;DHT22;16337;59.536;13.468;2023-12-28T12:01:27;-0.50;99.90
29341;DHT22;16337;59.536;13.468;2023-12-28T12:03:54;-0.60;99.90
29341;DHT22;16337;59.536;13.468;2023-12-28T12:06:19;-0.60;99.90
29341;DHT22;16337;59.536;13.468;2023-12-28T12:08:49;-0.60;99.90
29341;DHT22;16337;59.536;13.468;2023-12-28T12:11:17;-0.60;99.90
29341;DHT22;16337;59.536;13.468;2023-12-28T12:13:43;-0.50;99.90
29341;DHT22;16337;59.536;13.468;2023-12-28T12:16:09;-0.50;99.90
29341;DHT22;16337;59.536;13.468;2023-12-28T12:18:35;-0.50;99.90
29341;DHT22;16337;59.536;13.468;2023-12-28T12:21:02;-0.50;99.90
29341;DHT22;16337;59.536;13.468;2023-12-28T12:23:28;-0.50;99.90
29341;DHT22;16337;59.536;13.468;2023-12-28T12:25:54;-0.50;99.90
29341;DHT22;16337;59.536;13.468;2023-12-28T12:28:20;-0.40;99.90
29341;DHT22;16337;59.536;13.468;2023-12-28T12:30:56;-0.40;99.90
29341;DHT22;16337;59.536;13.468;2023-12-28T12:33:25;-0.40;99.90
29341;DHT22;16337;59.536;13.468;2023-12-28T12:35:52;-0.40;99.90
29341;DHT22;16337;59.536;13.468;2023-12-28T12:38:18;-0.30;99.90
29341;DHT22;16337;59.536;13.468;2023-12-28T12:40:44;-0.30;99.90
29341;DHT22;16337;59.536;13.468;2023-12-28T12:43:10;-0.40;99.90
29341;DHT22;16337;59.536;13.468;2023-12-28T12:45:36;-0.40;99.90
29341;DHT22;16337;59.536;13.468;2023-12-28T12:48:02;-0.30;99.90
29341;DHT22;16337;59.536;13.468;2023-12-28T12:50:31;-0.30;99.90
29341;DHT22;16337;59.536;13.468;2023-12-28T12:53:23;-0.30;99.90
29341;DHT22;16337;59.536;13.468;2023-12-28T12:56:00;-0.20;99.90
29341;DHT22;16337;59.536;13.468;2023-12-28T12:58:26;-0.20;99.90
29341;DHT22;16337;59.536;13.468;2023-12-28T13:00:53;-0.20;99.90
29341;DHT22;16337;59.536;13.468;2023-12-28T13:03:20;-0.10;99.90
29341;DHT22;16337;59.536;13.468;2023-12-28T13:05:46;-0.10;99.90
29341;DHT22;16337;59.536;13.468;2023-12-28T13:08:11;-0.10;99.90
29341;DHT22;16337;59.536;13.468;2023-12-28T13:10:37;-0.10;99.90
29341;DHT22;16337;59.536;13.468;2023-12-28T13:13:06;-0.10;99.90
29341;DHT22;16337;59.536;13.468;2023-12-28T13:15:32;-0.10;99.90
29341;DHT22;16337;59.536;13.468;2023-12-28T13:17:58;-0.10;99.90
29341;DHT22;16337;59.536;13.468;2023-12-28T13:20:23;-0.10;99.90
29341;DHT22;16337;59.536;13.468;2023-12-28T13:22:49;-0.10;99.90
29341;DHT22;16337;59.536;13.468;2023-12-28T13:25:15;-0.10;99.90
29341;DHT22;16337;59.536;13.468;2023-12-28T13:27:41;-0.10;99.90
29341;DHT22;16337;59.536;13.468;2023-12-28T13:30:07;-0.10;99.90
29341;DHT22;16337;59.536;13.468;2023-12-28T13:32:33;-0.10;99.90
29341;DHT22;16337;59.536;13.468;2023-12-28T13:34:59;-0.10;99.90
29341;DHT22;16337;59.536;13.468;2023-12-28T13:37:25;-0.10;99.90
29341;DHT22;16337;59.536;13.468;2023-12-28T13:39:50;-0.10;99.90
29341;DHT22;16337;59.536;13.468;2023-12-28T13:42:16;-0.10;99.90
29341;DHT22;16337;59.536;13.468;2023-12-28T13:44:42;0.00;99.90
29341;DHT22;16337;59.536;13.468;2023-12-28T13:47:09;-0.10;99.90
29341;DHT22;16337;59.536;13.468;2023-12-28T13:49:34;-0.10;99.90
29341;DHT22;16337;59.536;13.468;2023-12-28T13:52:00;0.00;99.90
29341;DHT22;16337;59.536;13.468;2023-12-28T13:54:26;-0.10;99.90
29341;DHT22;16337;59.536;13.468;2023-12-28T13:56:51;-0.10;99.90
29341;DHT22;16337;59.536;13.468;2023-12-28T13:59:23;-0.10;99.90
29341;DHT22;16337;59.536;13.468;2023-12-28T14:01:49;-0.10;99.90
29341;DHT22;16337;59.536;13.468;2023-12-28T14:04:15;-0.20;99.90
29341;DHT22;16337;59.536;13.468;2023-12-28T14:06:40;-0.20;99.90
29341;DHT22;16337;59.536;13.468;2023-12-28T14:09:06;-0.20;99.90
29341;DHT22;16337;59.536;13.468;2023-12-28T14:11:31;-0.30;99.90
29341;DHT22;16337;59.536;13.468;2023-12-28T14:13:57;-0.30;99.90
29341;DHT22;16337;59.536;13.468;2023-12-28T14:16:23;-0.40;99.90
29341;DHT22;16337;59.536;13.468;2023-12-28T14:18:48;-0.40;99.90
29341;DHT22;16337;59.536;13.468;2023-12-28T14:21:15;-0.40;99.90
29341;DHT22;16337;59.536;13.468;2023-12-28T14:23:41;-0.50;99.90
29341;DHT22;16337;59.536;13.468;2023-12-28T14:26:14;-0.50;99.90
29341;DHT22;16337;59.536;13.468;2023-12-28T14:28:43;-0.50;99.90
29341;DHT22;16337;59.536;13.468;2023-12-28T14:31:10;-0.50;99.90
29341;DHT22;16337;59.536;13.468;2023-12-28T14:33:36;-0.50;99.90
29341;DHT22;16337;59.536;13.468;2023-12-28T14:36:02;-0.50;99.90
29341;DHT22;16337;59.536;13.468;2023-12-28T14:38:29;-0.50;99.90
29341;DHT22;16337;59.536;13.468;2023-12-28T14:40:55;-0.60;99.90
29341;DHT22;16337;59.536;13.468;2023-12-28T14:43:21;-0.50;99.90
29341;DHT22;16337;59.536;13.468;2023-12-28T14:45:46;-0.50;99.90
29341;DHT22;16337;59.536;13.468;2023-12-28T14:48:13;-0.60;99.90
29341;DHT22;16337;59.536;13.468;2023-12-28T14:50:38;-0.60;99.90
29341;DHT22;16337;59.536;13.468;2023-12-28T14:53:04;-0.60;99.90
29341;DHT22;16337;59.536;13.468;2023-12-28T14:55:30;-0.60;99.90
29341;DHT22;16337;59.536;13.468;2023-12-28T14:57:55;-0.60;99.90
29341;DHT22;16337;59.536;13.468;2023-12-28T15:00:21;-0.60;99.90
29341;DHT22;16337;59.536;13.468;2023-12-28T15:02:47;-0.60;99.90
29341;DHT22;16337;59.536;13.468;2023-12-28T15:05:12;-0.60;99.90
29341;DHT22;16337;59.536;13.468;2023-12-28T15:07:39;-0.60;99.90
29341;DHT22;16337;59.536;13.468;2023-12-28T15:10:05;-0.60;99.90
29341;DHT22;16337;59.536;13.468;2023-12-28T15:12:33;-0.60;99.90
29341;DHT22;16337;59.536;13.468;2023-12-28T15:14:59;-0.60;99.90
29341;DHT22;16337;59.536;13.468;2023-12-28T15:17:25;-0.60;99.90
29341;DHT22;16337;59.536;13.468;2023-12-28T15:19:53;-0.70;99.90
29341;DHT22;16337;59.536;13.468;2023-12-28T15:22:19;-0.70;99.90
29341;DHT22;16337;59.536;13.468;2023-12-28T15:24:45;-0.70;99.90
29341;DHT22;16337;59.536;13.468;2023-12-28T15:27:11;-0.70;99.90
29341;DHT22;16337;59.536;13.468;2023-12-28T15:29:38;-0.70;99.90
29341;DHT22;16337;59.536;13.468;2023-12-28T15:32:04;-0.70;99.90
29341;DHT22;16337;59.536;13.468;2023-12-28T15:34:29;-0.70;99.90
29341;DHT22;16337;59.536;13.468;2023-12-28T15:36:55;-0.60;99.90
29341;DHT22;16337;59.536;13.468;2023-12-28T15:39:21;-0.70;99.90
29341;DHT22;16337;59.536;13.468;2023-12-28T15:41:47;-0.70;99.90
29341;DHT22;16337;59.536;13.468;2023-12-28T15:44:12;-0.70;99.90
29341;DHT22;16337;59.536;13.468;2023-12-28T15:46:40;-0.70;99.90
29341;DHT22;16337;59.536;13.468;2023-12-28T15:49:06;-0.70;99.90
29341;DHT22;16337;59.536;13.468;2023-12-28T15:51:31;-0.80;99.90
29341;DHT22;16337;59.536;13.468;2023-12-28T15:53:57;-0.80;99.90
29341;DHT22;16337;59.536;13.468;2023-12-28T15:56:23;-0.80;99.90
29341;DHT22;16337;59.536;13.468;2023-12-28T15:58:48;-0.80;99.90
29341;DHT22;16337;59.536;13.468;2023-12-28T16:01:14;-0.80;99.90
29341;DHT22;16337;59.536;13.468;2023-12-28T16:03:40;-0.70;99.90
29341;DHT22;16337;59.536;13.468;2023-12-28T16:06:07;-0.80;99.90
29341;DHT22;16337;59.536;13.468;2023-12-28T16:08:37;-0.70;99.90
29341;DHT22;16337;59.536;13.468;2023-12-28T16:11:33;-0.80;99.90
29341;DHT22;16337;59.536;13.468;2023-12-28T16:14:07;-0.70;99.90
29341;DHT22;16337;59.536;13.468;2023-12-28T16:16:33;-0.70;99.90
29341;DHT22;16337;59.536;13.468;2023-12-28T16:18:59;-0.70;99.90
29341;DHT22;16337;59.536;13.468;2023-12-28T16:21:25;-0.80;99.90
29341;DHT22;16337;59.536;13.468;2023-12-28T16:24:11;-0.80;99.90
29341;DHT22;16337;59.536;13.468;2023-12-28T16:26:37;-0.80;99.90
29341;DHT22;16337;59.536;13.468;2023-12-28T16:29:02;-0.80;99.90
29341;DHT22;16337;59.536;13.468;2023-12-28T16:31:29;-0.80;99.90
29341;DHT22;16337;59.536;13.468;2023-12-28T16:33:55;-0.70;99.90
29341;DHT22;16337;59.536;13.468;2023-12-28T16:36:20;-0.70;99.90
29341;DHT22;16337;59.536;13.468;2023-12-28T16:38:46;-0.70;99.90
29341;DHT22;16337;59.536;13.468;2023-12-28T16:41:12;-0.70;99.90
29341;DHT22;16337;59.536;13.468;2023-12-28T16:43:38;-0.70;99.90
29341;DHT22;16337;59.536;13.468;2023-12-28T16:46:04;-0.70;99.90
29341;DHT22;16337;59.536;13.468;2023-12-28T16:48:31;-0.70;99.90
29341;DHT22;16337;59.536;13.468;2023-12-28T16:50:58;-0.80;99.90
29341;DHT22;16337;59.536;13.468;2023-12-28T16:53:27;-0.80;99.90
29341;DHT22;16337;59.536;13.468;2023-12-28T16:55:53;-0.70;99.90
29341;DHT22;16337;59.536;13.468;2023-12-28T16:58:19;-0.80;99.90
29341;DHT22;16337;59.536;13.468;2023-12-28T17:00:44;-0.80;99.90
29341;DHT22;16337;59.536;13.468;2023-12-28T17:03:10;-0.80;99.90
29341;DHT22;16337;59.536;13.468;2023-12-28T17:05:36;-0.80;99.90
29341;DHT22;16337;59.536;13.468;2023-12-28T17:08:02;-0.80;99.90
29341;DHT22;16337;59.536;13.468;2023-12-28T17:10:28;-0.80;99.90
29341;DHT22;16337;59.536;13.468;2023-12-28T17:12:54;-0.80;99.90
29341;DHT22;16337;59.536;13.468;2023-12-28T17:15:20;-0.80;99.90
29341;DHT22;16337;59.536;13.468;2023-12-28T17:17:46;-0.80;99.90
29341;DHT22;16337;59.536;13.468;2023-12-28T17:20:12;-0.90;99.90
29341;DHT22;16337;59.536;13.468;2023-12-28T17:22:41;-0.90;99.90
29341;DHT22;16337;59.536;13.468;2023-12-28T17:27:55;-0.90;99.90
29341;DHT22;16337;59.536;13.468;2023-12-28T17:30:25;-0.80;99.90
29341;DHT22;16337;59.536;13.468;2023-12-28T17:32:57;-0.80;99.90
29341;DHT22;16337;59.536;13.468;2023-12-28T17:35:24;-0.90;99.90
29341;DHT22;16337;59.536;13.468;2023-12-28T17:37:50;-0.80;99.90
29341;DHT22;16337;59.536;13.468;2023-12-28T17:40:16;-0.90;99.90
29341;DHT22;16337;59.536;13.468;2023-12-28T17:42:45;-0.90;99.90
29341;DHT22;16337;59.536;13.468;2023-12-28T17:45:13;-0.80;99.90
29341;DHT22;16337;59.536;13.468;2023-12-28T17:48:06;-0.80;99.90
29341;DHT22;16337;59.536;13.468;2023-12-28T17:50:36;-0.80;99.90
29341;DHT22;16337;59.536;13.468;2023-12-28T17:53:02;-0.80;99.90
29341;DHT22;16337;59.536;13.468;2023-12-28T17:55:28;-0.80;99.90
29341;DHT22;16337;59.536;13.468;2023-12-28T17:57:54;-0.90;99.90
29341;DHT22;16337;59.536;13.468;2023-12-28T18:00:20;-0.80;99.90
29341;DHT22;16337;59.536;13.468;2023-12-28T18:02:48;-0.90;99.90
29341;DHT22;16337;59.536;13.468;2023-12-28T18:05:14;-0.90;99.90
29341;DHT22;16337;59.536;13.468;2023-12-28T18:07:40;-0.90;99.90
29341;DHT22;16337;59.536;13.468;2023-12-28T18:10:06;-0.90;99.90
29341;DHT22;16337;59.536;13.468;2023-12-28T18:12:36;-0.90;99.90
29341;DHT22;16337;59.536;13.468;2023-12-28T18:15:03;-0.90;99.90